createdAt,value
2018-02-13T00:01:19.208Z,74.40
2018-02-13T00:03:51.692Z,74.40
2018-02-13T00:06:24.147Z,74.70
2018-02-13T00:08:56.607Z,74.80
2018-02-13T00:11:29.882Z,75.30
2018-02-13T00:14:02.313Z,74.40
2018-02-13T05:33:22.584Z,73.40
2018-02-13T05:35:55.031Z,73.80
2018-02-13T05:38:28.291Z,74.20
2018-02-13T05:41:00.776Z,74.20
2018-02-13T05:43:33.248Z,74.60
2018-02-13T05:46:05.704Z,74.30
2018-02-13T05:48:38.186Z,74.00
2018-02-13T05:51:10.627Z,74.20
2018-02-13T05:53:43.095Z,73.60
2018-02-13T05:56:15.556Z,74.50
2018-02-13T05:58:48.813Z,74.60
2018-02-13T06:01:21.263Z,74.50
2018-02-13T06:03:53.747Z,74.40
2018-02-13T06:06:26.200Z,74.40
2018-02-13T06:08:58.680Z,74.50
2018-02-13T06:11:31.151Z,74.50
2018-02-13T06:14:03.616Z,74.20
2018-02-13T06:16:36.075Z,74.50
2018-02-13T06:19:09.323Z,74.30
2018-02-13T06:21:41.772Z,74.20
2018-02-13T06:24:14.258Z,73.90
2018-02-13T06:26:46.715Z,73.90
2018-02-13T06:29:19.179Z,73.60
2018-02-13T06:31:51.635Z,73.40
2018-02-13T06:34:24.989Z,73.80
2018-02-13T06:36:57.440Z,73.80
2018-02-13T06:39:29.926Z,73.90
2018-02-13T06:42:02.386Z,73.80
2018-02-13T06:44:34.864Z,73.70
2018-02-13T06:47:07.311Z,73.40
2018-02-13T06:49:39.792Z,73.20
2018-02-13T06:52:13.011Z,72.90
2018-02-13T06:54:45.483Z,72.80
2018-02-13T06:57:17.943Z,73.20
2018-02-13T06:59:50.416Z,73.20
2018-02-13T07:02:22.868Z,73.10
2018-02-13T07:04:55.354Z,73.70
2018-02-13T07:07:27.823Z,73.90
2018-02-13T07:10:00.286Z,73.90
2018-02-13T07:12:32.760Z,73.70
2018-02-13T07:15:05.237Z,73.40
2018-02-13T07:17:37.722Z,73.10
2018-02-13T07:20:10.954Z,73.10
2018-02-13T07:22:43.431Z,73.00
2018-02-13T07:25:15.910Z,73.30
2018-02-13T07:27:48.376Z,73.30
2018-02-13T16:32:16.351Z,41.80
2018-02-13T16:34:48.827Z,42.50
2018-02-13T16:37:21.282Z,42.80
2018-02-13T16:39:53.760Z,43.20
2018-02-13T16:42:26.208Z,43.50
2018-02-13T16:44:59.447Z,44.20
2018-02-13T16:47:31.911Z,44.20
2018-02-13T16:50:04.397Z,44.80
2018-02-13T16:52:36.848Z,45.30
2018-02-13T16:55:09.332Z,45.40
2018-02-13T16:57:41.793Z,45.10
2018-02-13T17:00:14.267Z,44.90
2018-02-13T17:02:46.745Z,45.30
2018-02-13T17:05:19.186Z,46.50
2018-02-13T17:07:51.646Z,47.00
2018-02-13T17:10:24.101Z,47.10
2018-02-13T17:12:56.571Z,47.30
2018-02-13T17:15:29.044Z,47.20
2018-02-13T17:18:01.521Z,47.40
2018-02-13T17:20:33.964Z,47.50
2018-02-13T17:23:06.438Z,48.20
2018-02-13T17:25:38.916Z,48.50
2018-02-13T17:28:11.433Z,48.80
2018-02-13T17:30:43.876Z,48.80
2018-02-13T17:33:16.347Z,49.70
2018-02-13T17:35:48.828Z,50.00
2018-02-13T17:38:21.314Z,50.80
2018-02-13T17:40:53.771Z,50.80
2018-02-13T17:43:26.268Z,51.30
2018-02-13T17:45:58.719Z,51.50
2018-02-13T17:48:31.196Z,52.20
2018-02-13T17:51:03.667Z,52.00
2018-02-13T17:53:36.123Z,51.90
2018-02-13T17:56:08.609Z,52.20
2018-02-13T17:58:41.060Z,52.30
2018-02-13T18:01:14.308Z,52.10
2018-02-13T18:03:46.747Z,52.00
2018-02-13T18:06:19.270Z,52.60
2018-02-13T18:08:51.711Z,52.60
2018-02-13T18:11:24.184Z,52.70
2018-02-13T18:13:56.638Z,52.70
2018-02-13T18:16:29.137Z,52.80
2018-02-13T18:19:01.587Z,52.70
2018-02-13T18:21:34.841Z,53.10
2018-02-13T18:24:07.321Z,53.00
2018-02-13T18:26:39.760Z,53.20
2018-02-13T18:29:12.236Z,53.50
2018-02-13T18:31:44.670Z,53.50
2018-02-13T18:34:17.934Z,53.90
2018-02-13T18:36:50.369Z,53.80
2018-02-13T18:39:27.853Z,54.00
2018-02-13T18:42:42.900Z,53.90
2018-02-13T18:45:15.371Z,54.30
2018-02-13T18:47:47.822Z,54.20
2018-02-13T18:50:20.300Z,54.40
2018-02-13T18:55:25.256Z,54.60
2018-02-13T18:57:57.693Z,54.90
2018-02-13T19:00:30.165Z,55.00
2018-02-13T19:03:02.640Z,55.20
2018-02-13T19:05:35.145Z,55.20
2018-02-13T19:08:07.575Z,55.50
2018-02-13T19:10:40.815Z,56.00
2018-02-13T19:13:13.264Z,55.90
2018-02-13T19:15:45.752Z,55.90
2018-02-13T19:18:18.201Z,56.00
2018-02-13T19:20:51.440Z,56.20
2018-02-13T19:23:23.923Z,56.10
2018-02-13T19:25:56.391Z,56.30
2018-02-13T19:28:28.874Z,56.20
2018-02-13T19:31:01.542Z,56.50
2018-02-13T19:33:34.147Z,56.50
2018-02-13T19:36:06.693Z,56.80
2018-02-13T19:38:39.310Z,56.40
2018-02-13T19:41:12.532Z,56.80
2018-02-13T19:43:45.024Z,56.80
2018-02-13T19:46:17.473Z,56.70
2018-02-13T19:48:50.811Z,57.40
2018-02-13T19:51:23.240Z,57.30
2018-02-13T19:53:55.720Z,57.40
2018-02-13T19:56:28.175Z,57.30
2018-02-13T19:59:00.663Z,57.70
2018-02-13T20:01:33.899Z,57.80
2018-02-13T20:04:06.377Z,57.80
2018-02-13T20:06:38.848Z,57.70
2018-02-13T20:09:12.348Z,57.90
2018-02-13T20:11:44.819Z,57.90
2018-02-13T20:14:17.266Z,57.90
2018-02-13T20:16:49.749Z,58.10
2018-02-13T20:19:22.184Z,58.20
2018-02-13T20:21:54.664Z,58.30
2018-02-13T20:24:27.109Z,58.30
2018-02-13T20:26:59.589Z,58.50
2018-02-13T20:29:32.105Z,58.50
2018-02-13T20:32:04.564Z,58.60
2018-02-13T20:34:37.820Z,59.00
2018-02-13T20:37:10.291Z,58.70
2018-02-13T20:39:42.747Z,58.80
2018-02-13T20:42:15.219Z,59.40
2018-02-13T20:44:47.673Z,59.00
2018-02-13T20:47:20.160Z,58.90
2018-02-13T20:49:52.615Z,59.00
2018-02-13T20:52:25.093Z,59.60
2018-02-13T20:54:58.323Z,59.30
2018-02-13T20:57:30.796Z,59.30
2018-02-13T21:00:03.248Z,59.30
2018-02-13T21:02:36.495Z,59.30
2018-02-13T21:05:08.951Z,59.30
2018-02-13T21:07:41.444Z,59.20
2018-02-13T21:10:13.900Z,59.30
2018-02-13T21:12:46.368Z,59.40
2018-02-13T21:15:18.993Z,59.40
2018-02-13T21:17:51.435Z,59.50
2018-02-13T21:20:23.920Z,59.50
2018-02-13T21:22:56.376Z,59.50
2018-02-13T21:25:28.856Z,59.60
2018-02-13T21:28:01.344Z,60.30
2018-02-13T21:30:33.789Z,59.40
2018-02-13T21:33:06.271Z,59.50
2018-02-13T21:35:38.719Z,59.50
2018-02-13T21:38:11.212Z,59.50
2018-02-13T21:40:43.672Z,59.60
2018-02-13T21:43:16.161Z,59.60
2018-02-13T21:45:48.611Z,59.70
2018-02-13T21:48:21.896Z,59.50
2018-02-13T21:50:54.320Z,59.50
2018-02-13T21:53:26.816Z,59.50
2018-02-13T21:55:59.309Z,59.50
2018-02-13T21:58:31.782Z,59.50
2018-02-13T22:01:04.281Z,59.60
2018-02-13T22:03:36.740Z,59.50
2018-02-13T22:06:09.218Z,59.50
2018-02-13T22:08:42.468Z,62.10
2018-02-13T22:11:14.960Z,61.20
2018-02-13T22:13:47.431Z,60.30
2018-02-13T22:16:19.884Z,59.80
2018-02-13T22:18:52.368Z,59.80
2018-02-13T22:21:24.852Z,59.60
2018-02-13T22:23:57.311Z,59.50
2018-02-13T22:26:29.803Z,59.90
2018-02-13T22:29:02.284Z,59.60
2018-02-13T22:31:34.763Z,59.60
2018-02-13T22:34:07.241Z,59.60
2018-02-13T22:36:39.701Z,59.40
2018-02-13T22:39:12.179Z,59.50
2018-02-13T22:41:44.651Z,59.80
2018-02-13T22:44:17.152Z,59.70
2018-02-13T22:46:49.632Z,59.70
2018-02-13T22:49:22.082Z,59.70
2018-02-13T22:51:54.567Z,59.80
2018-02-13T22:54:27.043Z,59.70
2018-02-13T22:56:59.500Z,59.70
2018-02-13T22:59:31.991Z,59.80
2018-02-13T23:02:04.436Z,59.80
2018-02-13T23:04:36.935Z,59.60
2018-02-13T23:07:09.382Z,59.80
2018-02-13T23:09:41.872Z,59.90
2018-02-13T23:12:14.352Z,59.90
2018-02-13T23:14:46.808Z,60.00
2018-02-13T23:17:19.288Z,60.20
2018-02-13T23:19:51.757Z,60.40
2018-02-13T23:22:24.241Z,60.40
2018-02-13T23:24:56.713Z,60.40
2018-02-13T23:27:29.188Z,60.50
2018-02-13T23:30:01.645Z,60.40
2018-02-13T23:32:34.133Z,60.40
2018-02-13T23:35:06.591Z,60.60
2018-02-13T23:37:39.074Z,60.40
2018-02-13T23:40:11.527Z,60.40
2018-02-13T23:42:44.776Z,60.60
2018-02-13T23:45:17.235Z,60.50
2018-02-13T23:47:49.727Z,60.90
2018-02-13T23:50:22.199Z,61.80
2018-02-13T23:52:54.687Z,61.10
2018-02-13T23:55:27.152Z,61.00
2018-02-13T23:57:59.633Z,61.20
